Time;durP1;ratioP1;P1;durP2;ratioP2;P2;SDS_P1;SDS_P2;PMS_P1;PMS_P2;Temp;Humidity;BMP_temperature;BMP_pressure;BME280_temperature;BME280_humidity;BME280_pressure;Samples;Min_cycle;Max_cycle;Signal;HPM_P1;HPM_P2
2021/09/03 00:00:09;;;;;;;;;35.75;31.00;;;;;20.44;58.32;101734.91;5011000;28;45336;-54
2021/09/03 00:02:36;;;;;;;;;34.50;30.25;;;;;20.41;58.24;101729.81;5012804;28;45370;-53
2021/09/03 00:05:04;;;;;;;;;33.75;29.75;;;;;20.37;58.37;101726.53;5002002;28;45546;-54
2021/09/03 00:07:30;;;;;;;;;34.25;30.50;;;;;20.35;58.77;101724.00;5025607;28;46343;-55
2021/09/03 00:09:55;;;;;;;;;33.00;28.25;;;;;20.32;58.88;101724.25;5018860;28;45254;-55
2021/09/03 00:12:22;;;;;;;;;33.75;30.00;;;;;20.30;58.57;101722.66;5005354;28;45502;-52
2021/09/03 00:14:48;;;;;;;;;33.75;30.50;;;;;20.28;59.08;101725.47;5002099;28;45440;-54
2021/09/03 00:17:13;;;;;;;;;35.25;30.00;;;;;20.26;58.71;101724.78;5001636;28;45429;-53
2021/09/03 00:19:39;;;;;;;;;35.25;29.00;;;;;20.25;59.12;101719.56;5001503;28;45246;-54
2021/09/03 00:22:05;;;;;;;;;31.75;27.00;;;;;20.23;59.22;101722.38;5001708;28;45396;-54
2021/09/03 00:24:30;;;;;;;;;31.25;27.25;;;;;20.17;58.90;101714.84;5001305;28;45401;-55
2021/09/03 00:26:56;;;;;;;;;31.00;27.75;;;;;20.13;59.31;101707.19;5001555;28;46199;-53
2021/09/03 00:29:21;;;;;;;;;32.50;25.00;;;;;20.08;59.44;101715.63;5001816;28;45516;-53
2021/09/03 00:31:47;;;;;;;;;38.00;31.50;;;;;20.02;59.37;101711.63;5001564;28;45424;-54
2021/09/03 00:34:12;;;;;;;;;28.00;26.50;;;;;19.97;59.20;101705.81;5001578;28;45328;-54
2021/09/03 00:36:38;;;;;;;;;29.25;22.25;;;;;19.97;59.35;101711.16;5001223;28;45971;-54
2021/09/03 00:39:03;;;;;;;;;25.50;23.25;;;;;19.97;59.52;101703.13;5001592;28;45316;-54
2021/09/03 00:41:29;;;;;;;;;29.25;26.00;;;;;19.95;59.76;101706.94;5001583;28;45234;-54
2021/09/03 00:43:54;;;;;;;;;24.00;24.00;;;;;19.94;59.43;101699.88;5001770;28;45253;-54
2021/09/03 00:46:20;;;;;;;;;28.00;26.25;;;;;19.90;60.11;101699.28;5001356;28;46059;-54
2021/09/03 00:48:45;;;;;;;;;33.25;28.50;;;;;19.86;59.95;101689.81;5001471;28;45348;-54
2021/09/03 00:51:11;;;;;;;;;30.00;26.50;;;;;19.84;59.97;101690.94;5001391;28;45304;-55
2021/09/03 00:53:37;;;;;;;;;29.75;27.00;;;;;19.80;60.31;101691.19;5001606;28;45535;-52
2021/09/03 00:56:03;;;;;;;;;33.75;23.50;;;;;19.78;60.00;101685.13;5001263;28;45384;-54
2021/09/03 00:58:29;;;;;;;;;33.00;26.00;;;;;19.76;60.57;101686.22;5011169;28;45472;-54
2021/09/03 01:00:54;;;;;;;;;32.50;25.25;;;;;19.73;60.33;101678.44;5021212;28;45419;-55
2021/09/03 01:03:20;;;;;;;;;28.25;25.75;;;;;19.68;60.16;101681.50;5021360;28;45679;-55
2021/09/03 01:05:45;;;;;;;;;28.00;23.25;;;;;19.66;60.67;101678.09;5020579;28;46030;-54
2021/09/03 01:08:11;;;;;;;;;30.25;24.50;;;;;19.63;60.29;101670.34;5020929;28;45395;-53
2021/09/03 01:10:37;;;;;;;;;30.25;25.25;;;;;19.59;60.37;101671.59;5014878;28;45312;-51
2021/09/03 01:13:03;;;;;;;;;27.50;23.50;;;;;19.57;60.96;101672.66;5001409;28;45602;-55
2021/09/03 01:15:29;;;;;;;;;28.00;23.75;;;;;19.54;60.85;101671.06;5001101;28;46429;-53
2021/09/03 01:17:55;;;;;;;;;31.00;28.00;;;;;19.51;61.10;101677.53;5001020;28;45341;-55
2021/09/03 01:20:20;;;;;;;;;28.50;24.25;;;;;19.51;61.25;101665.97;5000996;28;45150;-54
2021/09/03 01:22:46;;;;;;;;;29.25;27.00;;;;;19.49;60.93;101670.59;5001147;28;45468;-55
2021/09/03 01:25:12;;;;;;;;;25.25;23.00;;;;;19.48;61.35;101669.75;5000828;28;46018;-55
2021/09/03 01:27:40;;;;;;;;;28.00;24.50;;;;;19.48;61.04;101666.22;5001025;28;45290;-55
2021/09/03 01:30:08;;;;;;;;;27.00;24.75;;;;;19.44;61.11;101662.13;5016173;28;45402;-55
2021/09/03 01:32:34;;;;;;;;;24.75;23.25;;;;;19.43;61.23;101653.25;5001121;28;45229;-53
2021/09/03 01:34:59;;;;;;;;;27.50;24.75;;;;;19.39;61.60;101659.81;5002488;28;46296;-54
2021/09/03 01:37:25;;;;;;;;;30.75;27.50;;;;;19.41;61.59;101662.34;5004483;28;45355;-53
2021/09/03 01:39:50;;;;;;;;;29.50;27.25;;;;;19.39;61.51;101659.81;5004457;28;45549;-51
2021/09/03 01:42:16;;;;;;;;;32.75;28.25;;;;;19.37;61.22;101653.75;5004616;28;45383;-54
2021/09/03 01:44:41;;;;;;;;;27.50;25.50;;;;;19.34;61.46;101653.97;5004123;28;46066;-53
2021/09/03 01:47:07;;;;;;;;;27.75;26.00;;;;;19.33;61.72;101651.44;5004335;28;45202;-55
2021/09/03 01:49:32;;;;;;;;;33.50;26.50;;;;;19.27;61.48;101639.44;5004101;28;45345;-54
2021/09/03 01:51:58;;;;;;;;;28.75;25.75;;;;;19.28;61.38;101640.31;5004189;28;45318;-52
2021/09/03 01:54:23;;;;;;;;;33.50;29.25;;;;;19.28;61.93;101648.31;5003921;28;46174;-54
2021/09/03 01:56:49;;;;;;;;;36.75;31.00;;;;;19.26;61.62;101645.75;5003995;28;45465;-55
2021/09/03 01:59:14;;;;;;;;;35.00;30.50;;;;;19.23;62.08;101649.53;5010036;28;45414;-52
2021/09/03 02:01:39;;;;;;;;;25.50;25.50;;;;;19.22;61.68;101647.00;5024118;28;45467;-54
2021/09/03 02:04:05;;;;;;;;;35.25;30.75;;;;;19.20;62.09;101649.78;5023400;28;45316;-52
2021/09/03 02:06:31;;;;;;;;;31.50;29.00;;;;;19.22;62.07;101655.00;5023852;28;45397;-53
2021/09/03 02:08:56;;;;;;;;;30.75;26.75;;;;;19.21;62.34;101653.31;5023674;28;45470;-53
2021/09/03 02:11:22;;;;;;;;;28.75;26.00;;;;;19.19;62.11;101648.06;5012015;28;45455;-53
2021/09/03 02:13:47;;;;;;;;;31.75;27.50;;;;;19.19;62.03;101642.72;5003592;28;45370;-52
2021/09/03 02:16:13;;;;;;;;;27.75;27.00;;;;;19.20;61.67;101651.63;5003958;28;45269;-53
2021/09/03 02:18:38;;;;;;;;;33.25;26.75;;;;;19.14;62.06;101644.94;5003437;28;45463;-53
2021/09/03 02:21:04;;;;;;;;;34.50;29.50;;;;;19.17;62.07;101635.81;5003893;28;45276;-55
2021/09/03 02:23:31;;;;;;;;;31.00;27.50;;;;;19.14;61.75;101646.75;5003419;28;45250;-54
2021/09/03 02:25:57;;;;;;;;;32.25;27.00;;;;;19.14;62.10;101646.75;5003697;28;45242;-54
2021/09/03 02:28:22;;;;;;;;;36.25;31.00;;;;;19.11;61.75;101645.16;5006883;28;45203;-54
2021/09/03 02:30:48;;;;;;;;;30.25;28.00;;;;;19.08;62.00;101637.41;5011597;28;45238;-55
2021/09/03 02:33:13;;;;;;;;;34.75;32.25;;;;;19.07;62.21;101634.88;5003277;28;46180;-55
2021/09/03 02:35:39;;;;;;;;;31.25;27.25;;;;;19.04;61.75;101638.66;5003235;28;45376;-51
2021/09/03 02:38:05;;;;;;;;;30.00;27.25;;;;;18.96;62.01;101639.25;5003394;28;45491;-55
2021/09/03 02:40:30;;;;;;;;;27.75;27.75;;;;;18.93;62.19;101633.31;5003683;28;45380;-55
2021/09/03 02:42:56;;;;;;;;;29.75;27.75;;;;;18.89;61.96;101634.53;5003107;28;45381;-54
2021/09/03 02:45:21;;;;;;;;;32.25;30.00;;;;;18.87;62.09;101629.28;5003245;28;45242;-54
2021/09/03 02:47:47;;;;;;;;;32.75;28.25;;;;;18.86;62.07;101624.94;5002909;28;45653;-54
2021/09/03 02:50:13;;;;;;;;;30.00;27.00;;;;;18.85;62.36;101631.25;5003186;28;45560;-57
2021/09/03 02:52:39;;;;;;;;;34.25;31.00;;;;;18.87;62.33;101628.44;5002992;28;45260;-57
2021/09/03 02:55:07;;;;;;;;;33.50;27.50;;;;;18.83;62.06;101627.88;5003430;28;45317;-56
2021/09/03 02:57:33;;;;;;;;;29.50;28.00;;;;;18.82;62.55;101619.97;5003197;28;45521;-54
2021/09/03 02:59:58;;;;;;;;;37.25;31.75;;;;;18.77;62.63;101616.81;5015168;28;45446;-54
2021/09/03 03:02:24;;;;;;;;;29.50;28.50;;;;;18.70;62.17;101624.47;5022690;28;45351;-53
2021/09/03 03:04:49;;;;;;;;;40.50;30.00;;;;;18.65;62.50;101631.97;5022557;28;45264;-53
2021/09/03 03:07:15;;;;;;;;;32.75;30.75;;;;;18.62;62.45;101625.03;5022925;28;45331;-54
2021/09/03 03:09:41;;;;;;;;;38.75;31.00;;;;;18.58;62.49;101631.59;5022911;28;45403;-54
2021/09/03 03:12:06;;;;;;;;;39.50;33.25;;;;;18.55;62.81;101623.81;5004573;28;46355;-55
2021/09/03 03:14:35;;;;;;;;;38.00;33.00;;;;;18.53;62.51;101624.91;5002868;28;45340;-53
2021/09/03 03:17:01;;;;;;;;;39.00;32.50;;;;;18.54;62.79;101623.94;5002997;28;45233;-51
2021/09/03 03:19:28;;;;;;;;;38.00;30.50;;;;;18.54;62.67;101618.59;5002696;28;45527;-53
2021/09/03 03:21:54;;;;;;;;;33.75;31.75;;;;;18.50;63.01;101619.84;5002325;28;46417;-55
2021/09/03 03:24:19;;;;;;;;;43.25;33.50;;;;;18.48;63.22;101619.09;5002694;28;45393;-52
2021/09/03 03:26:46;;;;;;;;;38.50;32.75;;;;;18.47;63.23;101618.22;5002750;28;45493;-55
2021/09/03 03:29:12;;;;;;;;;36.00;29.25;;;;;18.43;63.41;101608.78;5012975;28;45415;-54
2021/09/03 03:31:37;;;;;;;;;43.75;33.75;;;;;18.42;62.94;101617.75;5004562;28;45396;-54
2021/09/03 03:34:03;;;;;;;;;40.75;33.00;;;;;18.37;63.11;101618.13;5002429;28;45313;-55
2021/09/03 03:36:29;;;;;;;;;35.25;33.25;;;;;18.35;63.37;101616.53;5002615;28;45353;-55
2021/09/03 03:38:55;;;;;;;;;43.00;33.00;;;;;18.33;63.35;101607.81;5002822;28;45249;-55
2021/09/03 03:41:20;;;;;;;;;44.25;32.50;;;;;18.31;63.42;101609.72;5002253;28;45371;-53
2021/09/03 03:43:46;;;;;;;;;42.00;33.00;;;;;18.30;63.28;101608.88;5002606;28;45323;-54
2021/09/03 03:46:12;;;;;;;;;34.25;29.50;;;;;18.29;63.59;101607.19;5002616;28;45364;-55
2021/09/03 03:48:37;;;;;;;;;35.25;32.50;;;;;18.28;63.18;101597.50;5002427;28;45523;-54
2021/09/03 03:51:03;;;;;;;;;42.25;32.75;;;;;18.28;63.26;101601.97;5002023;28;45229;-54
2021/09/03 03:53:29;;;;;;;;;37.25;33.00;;;;;18.25;63.60;101597.75;5002460;28;45471;-54
2021/09/03 03:55:54;;;;;;;;;39.00;30.75;;;;;18.21;63.49;101606.09;5002334;28;45300;-54
2021/09/03 03:58:20;;;;;;;;;43.75;34.00;;;;;18.20;63.69;101593.72;5000885;28;45532;-54
2021/09/03 04:00:46;;;;;;;;;36.25;32.75;;;;;18.21;63.31;101598.09;5019733;28;45300;-53
2021/09/03 04:03:12;;;;;;;;;46.75;36.25;;;;;18.20;63.52;101604.41;5022066;28;45324;-55
2021/09/03 04:05:38;;;;;;;;;36.00;31.00;;;;;18.14;63.35;101601.22;5021707;28;45470;-54
2021/09/03 04:08:04;;;;;;;;;42.00;33.50;;;;;18.11;63.73;101603.28;5022068;28;45454;-54
2021/09/03 04:10:29;;;;;;;;;41.75;34.25;;;;;18.09;63.70;101605.25;5016616;28;46129;-54
2021/09/03 04:12:55;;;;;;;;;42.00;34.50;;;;;18.05;63.91;101603.75;5002194;28;45320;-54
2021/09/03 04:15:20;;;;;;;;;38.75;33.50;;;;;18.03;63.80;101611.03;5002029;28;45222;-54
2021/09/03 04:17:46;;;;;;;;;39.75;33.75;;;;;18.01;63.82;101613.81;5002232;28;45373;-55
2021/09/03 04:20:11;;;;;;;;;46.00;36.50;;;;;17.98;63.78;101607.88;5001137;28;45367;-53
2021/09/03 04:22:37;;;;;;;;;41.75;34.75;;;;;17.96;64.05;101607.97;5001871;28;45237;-55
2021/09/03 04:25:04;;;;;;;;;38.25;30.75;;;;;17.98;63.96;101600.72;5001833;28;45146;-54
2021/09/03 04:27:29;;;;;;;;;45.00;34.00;;;;;18.01;64.01;101605.81;5001787;28;45440;-53
2021/09/03 04:29:55;;;;;;;;;44.50;33.75;;;;;18.02;63.88;101604.00;5013269;28;45898;-53
2021/09/03 04:32:20;;;;;;;;;43.25;35.75;;;;;18.02;63.85;101606.69;5001680;28;45305;-54
2021/09/03 04:34:46;;;;;;;;;40.00;32.50;;;;;18.01;64.19;101605.81;5001478;28;45336;-54
2021/09/03 04:37:12;;;;;;;;;37.25;33.25;;;;;17.99;64.02;101610.41;5001778;28;45336;-54
2021/09/03 04:39:38;;;;;;;;;44.50;37.50;;;;;18.01;63.99;101620.94;5001507;28;46336;-55
2021/09/03 04:42:04;;;;;;;;;37.75;31.00;;;;;18.03;63.92;101627.03;5001618;28;45292;-54
2021/09/03 04:44:30;;;;;;;;;37.50;33.75;;;;;18.00;64.06;101622.75;5001590;28;45356;-52
2021/09/03 04:46:55;;;;;;;;;41.00;34.25;;;;;17.97;63.94;101614.16;5001697;28;45152;-55
2021/09/03 04:49:21;;;;;;;;;43.25;35.75;;;;;17.95;63.77;101616.97;5001147;28;45378;-53
2021/09/03 04:51:46;;;;;;;;;42.75;37.00;;;;;17.91;63.92;101610.16;5001267;28;45167;-54
2021/09/03 04:54:12;;;;;;;;;41.50;34.25;;;;;17.87;64.33;101611.34;5001472;28;45298;-54
2021/09/03 04:56:37;;;;;;;;;41.75;35.25;;;;;17.84;64.35;101615.09;5001536;28;45456;-55
2021/09/03 04:59:03;;;;;;;;;37.50;33.00;;;;;17.82;64.22;101613.50;5004855;28;45805;-55
2021/09/03 05:01:28;;;;;;;;;43.00;33.50;;;;;17.80;64.29;101600.31;5021242;28;45311;-54
2021/09/03 05:03:53;;;;;;;;;43.75;36.00;;;;;17.77;64.14;101605.88;5020827;28;45249;-55
2021/09/03 05:06:19;;;;;;;;;42.75;36.00;;;;;17.75;64.47;101602.47;5021122;28;45363;-55
2021/09/03 05:08:45;;;;;;;;;42.75;33.75;;;;;17.77;64.22;101602.34;5020206;28;45393;-55
2021/09/03 05:11:10;;;;;;;;;47.75;37.25;;;;;17.75;64.18;101596.28;5010542;28;45396;-55
2021/09/03 05:13:35;;;;;;;;;49.50;40.00;;;;;17.72;64.47;101597.38;5001030;28;45506;-55
2021/09/03 05:16:01;;;;;;;;;41.50;35.25;;;;;17.74;64.52;101599.91;5001081;28;45456;-55
2021/09/03 05:18:26;;;;;;;;;46.00;35.00;;;;;17.75;64.51;101593.63;5000402;28;46235;-55
2021/09/03 05:20:52;;;;;;;;;41.00;36.75;;;;;17.76;64.35;101603.31;5001056;28;45355;-55
2021/09/03 05:23:17;;;;;;;;;39.25;34.00;;;;;17.75;64.68;101596.28;5000870;28;45329;-55
2021/09/03 05:25:43;;;;;;;;;52.00;41.00;;;;;17.76;64.45;101600.66;5001332;28;45311;-55
2021/09/03 05:28:09;;;;;;;;;46.75;37.00;;;;;17.74;64.31;101602.59;5001949;28;45454;-54
2021/09/03 05:30:36;;;;;;;;;44.75;36.50;;;;;17.69;64.62;101596.72;5010622;28;45473;-55
2021/09/03 05:33:01;;;;;;;;;52.50;39.25;;;;;17.63;64.68;101606.03;5000880;28;45154;-55
2021/09/03 05:35:27;;;;;;;;;41.25;35.50;;;;;17.63;64.57;101595.38;5000812;28;45289;-55
2021/09/03 05:37:56;;;;;;;;;42.00;34.50;;;;;17.59;64.33;101608.06;5000605;28;45304;-55
2021/09/03 05:40:23;;;;;;;;;40.75;35.75;;;;;17.56;64.87;101602.97;5000786;28;45460;-53
2021/09/03 05:42:49;;;;;;;;;44.75;34.25;;;;;17.55;64.71;101606.63;5000760;28;45269;-56
2021/09/03 05:45:15;;;;;;;;;48.75;36.75;;;;;17.51;64.88;101602.47;5000843;28;45226;-54
2021/09/03 05:47:42;;;;;;;;;41.75;35.00;;;;;17.50;64.82;101595.44;5000555;28;45411;-56
2021/09/03 05:50:08;;;;;;;;;84.33;64.67;;;;;17.50;64.77;101607.91;5000224;28;45395;-56
2021/09/03 05:52:34;;;;;;;;;44.50;37.00;;;;;17.50;64.72;101603.44;5000763;28;45388;-56
2021/09/03 05:54:59;;;;;;;;;49.75;37.00;;;;;17.56;64.94;101600.31;4999369;28;45390;-55
2021/09/03 05:57:25;;;;;;;;;44.25;36.00;;;;;17.67;64.63;101610.16;5000496;28;45506;-57
2021/09/03 05:59:50;;;;;;;;;48.25;35.75;;;;;17.80;64.74;101612.78;5011053;28;45287;-57
2021/09/03 06:02:16;;;;;;;;;48.75;36.50;;;;;17.92;64.45;101605.66;5003378;28;45477;-58
2021/09/03 06:04:42;;;;;;;;;43.75;36.75;;;;;18.05;63.94;101609.09;5000324;28;45431;-58
2021/09/03 06:07:08;;;;;;;;;46.25;36.25;;;;;18.13;63.83;101610.19;5000252;28;45317;-57
2021/09/03 06:09:33;;;;;;;;;52.75;41.00;;;;;18.18;63.52;101614.34;5005762;28;45422;-57
2021/09/03 06:11:58;;;;;;;;;47.50;36.50;;;;;18.24;63.43;101619.19;5003491;28;45431;-57
2021/09/03 06:14:24;;;;;;;;;47.25;37.00;;;;;18.31;63.44;101609.72;4999820;28;45600;-57
2021/09/03 06:16:50;;;;;;;;;49.25;37.00;;;;;18.44;62.69;101613.16;4999993;28;45237;-57
2021/09/03 06:19:15;;;;;;;;;49.00;40.50;;;;;18.55;62.96;101609.63;4999983;28;45375;-57
2021/09/03 06:21:41;;;;;;;;;35.00;31.00;;;;;18.63;62.50;101610.72;5001571;28;45411;-57
2021/09/03 06:24:27;;;;;;;;;43.75;36.00;;;;;18.69;62.07;101609.41;5003815;28;45515;-58
2021/09/03 06:26:52;;;;;;;;;45.50;36.50;;;;;18.75;62.44;101614.28;5003248;28;45280;-57
2021/09/03 06:29:37;;;;;;;;;48.50;37.50;;;;;18.80;62.03;101613.88;5014293;28;45221;-57
2021/09/03 06:32:06;;;;;;;;;47.25;35.25;;;;;18.83;61.75;101617.19;5003453;28;45285;-57
2021/09/03 06:34:32;;;;;;;;;45.00;35.00;;;;;18.83;61.64;101614.50;5003187;28;45430;-57
2021/09/03 06:36:58;;;;;;;;;46.25;37.00;;;;;18.83;61.51;101617.19;5003574;28;45403;-58
2021/09/03 06:39:23;;;;;;;;;44.75;36.25;;;;;18.86;61.71;101613.41;5003194;28;45392;-56
2021/09/03 06:41:49;;;;;;;;;48.25;38.00;;;;;18.86;61.64;101621.41;5003450;28;45449;-58
2021/09/03 06:44:15;;;;;;;;;42.75;35.75;;;;;18.87;61.59;101607.09;5003309;28;45575;-58
2021/09/03 06:46:40;;;;;;;;;45.50;34.50;;;;;18.90;61.56;101609.53;5003452;28;45333;-58
2021/09/03 06:49:05;;;;;;;;;38.00;34.00;;;;;18.93;61.29;101602.13;5003006;28;45354;-58
2021/09/03 06:51:31;;;;;;;;;37.25;33.50;;;;;19.01;60.93;101604.16;5003464;28;45291;-57
2021/09/03 06:53:56;;;;;;;;;41.50;35.00;;;;;19.02;61.12;101611.19;5003345;28;45575;-58
2021/09/03 06:56:22;;;;;;;;;38.50;34.00;;;;;19.00;60.68;101610.47;5003358;28;46075;-57
2021/09/03 06:58:47;;;;;;;;;44.50;35.50;;;;;19.00;60.85;101610.47;5004794;28;45153;-57
2021/09/03 07:01:13;;;;;;;;;33.25;30.25;;;;;19.00;61.19;101613.16;5023398;28;45443;-57
2021/09/03 07:03:38;;;;;;;;;36.25;32.25;;;;;19.00;60.96;101613.16;5022948;28;45265;-57
2021/09/03 07:06:03;;;;;;;;;46.50;37.50;;;;;19.00;61.11;101610.47;5022627;28;45297;-58
2021/09/03 07:08:29;;;;;;;;;45.00;33.75;;;;;18.96;60.93;101606.38;5022654;28;45389;-58
2021/09/03 07:10:54;;;;;;;;;35.75;30.00;;;;;18.97;61.22;101610.75;5014868;28;45515;-58
2021/09/03 07:13:20;;;;;;;;;39.50;33.50;;;;;18.98;61.07;101620.44;5003159;28;45495;-57
2021/09/03 07:15:45;;;;;;;;;37.75;31.25;;;;;19.03;61.52;101617.38;5002768;28;45990;-58
2021/09/03 07:18:11;;;;;;;;;43.75;34.75;;;;;19.10;61.23;101615.91;5002671;28;46094;-58
2021/09/03 07:20:36;;;;;;;;;31.75;30.50;;;;;19.17;60.66;101622.47;5002765;28;45503;-58
2021/09/03 07:23:02;;;;;;;;;40.25;32.00;;;;;19.20;60.68;101622.22;5002703;28;45385;-58
2021/09/03 07:25:27;;;;;;;;;32.25;30.75;;;;;19.20;60.41;101619.56;5002663;28;45914;-58
2021/09/03 07:27:53;;;;;;;;;36.75;32.00;;;;;19.22;60.78;101621.13;5002401;28;45364;-58
2021/09/03 07:30:19;;;;;;;;;33.00;30.75;;;;;19.25;60.63;101618.19;5014288;28;45459;-58
2021/09/03 07:32:44;;;;;;;;;35.50;30.50;;;;;19.27;60.80;101620.72;5002461;28;45593;-58
2021/09/03 07:35:13;;;;;;;;;32.75;30.75;;;;;19.30;60.58;101617.81;5002252;28;45300;-57
2021/09/03 07:37:42;;;;;;;;;35.50;31.25;;;;;19.32;60.29;101615.03;5002649;28;45502;-58
2021/09/03 07:40:10;;;;;;;;;36.75;30.75;;;;;19.34;60.65;101619.25;5002701;28;45392;-58
2021/09/03 07:42:36;;;;;;;;;40.50;32.75;;;;;19.37;60.62;101618.19;5002544;28;45246;-57
2021/09/03 07:45:03;;;;;;;;;35.75;29.25;;;;;19.36;60.46;101609.31;5002357;28;46199;-58
2021/09/03 07:47:29;;;;;;;;;35.75;32.00;;;;;19.39;60.57;101606.38;5002394;28;45239;-58
2021/09/03 07:49:55;;;;;;;;;36.00;31.75;;;;;19.42;60.96;101607.94;5002296;28;45357;-57
2021/09/03 07:52:21;;;;;;;;;32.75;31.00;;;;;19.44;60.76;101616.69;5002405;28;45570;-58
2021/09/03 07:54:46;;;;;;;;;33.75;30.00;;;;;19.45;60.45;101615.72;5002429;28;45461;-57
2021/09/03 07:57:12;;;;;;;;;34.75;31.25;;;;;19.46;61.24;101618.25;5002044;28;45253;-58
2021/09/03 07:59:37;;;;;;;;;38.00;31.00;;;;;19.52;60.50;101615.09;5011556;28;45432;-58
2021/09/03 08:02:03;;;;;;;;;37.25;32.50;;;;;19.55;60.60;101613.97;5022150;28;45387;-58
2021/09/03 08:04:30;;;;;;;;;36.50;30.75;;;;;19.59;60.55;101612.78;5021911;28;45380;-58
2021/09/03 08:06:56;;;;;;;;;32.00;29.00;;;;;19.63;60.24;101619.56;5021851;28;45271;-58
2021/09/03 08:09:22;;;;;;;;;37.50;30.25;;;;;19.68;60.49;101613.84;5022081;28;45260;-58
2021/09/03 08:11:48;;;;;;;;;37.00;31.50;;;;;19.72;60.52;101621.47;5006651;28;45366;-58
2021/09/03 08:14:13;;;;;;;;;28.25;25.00;;;;;19.75;60.55;101620.38;5002151;28;46167;-58
2021/09/03 08:16:39;;;;;;;;;36.00;27.75;;;;;19.79;60.18;101621.78;5001981;28;45435;-58
2021/09/03 08:19:05;;;;;;;;;30.50;27.00;;;;;19.82;60.32;101618.00;5001963;28;45351;-58
2021/09/03 08:21:31;;;;;;;;;31.25;28.25;;;;;19.85;59.98;101615.94;5001942;28;45321;-58
2021/09/03 08:23:56;;;;;;;;;36.50;33.00;;;;;19.89;59.96;101616.50;5002002;28;45408;-58
2021/09/03 08:26:22;;;;;;;;;33.75;29.75;;;;;19.93;59.74;101612.63;5001704;28;46585;-58
2021/09/03 08:28:47;;;;;;;;;28.25;27.25;;;;;20.03;59.87;101618.88;5008840;28;45451;-57
2021/09/03 08:31:13;;;;;;;;;29.00;27.00;;;;;20.10;59.74;101614.69;5006872;28;45376;-57
2021/09/03 08:33:38;;;;;;;;;31.50;30.50;;;;;20.14;59.30;101610.75;5001624;28;45938;-57
2021/09/03 08:36:04;;;;;;;;;32.50;28.50;;;;;20.18;59.53;101606.84;5001668;28;45270;-57
2021/09/03 08:38:30;;;;;;;;;34.25;27.75;;;;;20.25;59.44;101601.84;5001773;28;45344;-57
2021/09/03 08:40:59;;;;;;;;;26.75;26.00;;;;;20.30;59.11;101600.47;5002035;28;45282;-57
2021/09/03 08:43:25;;;;;;;;;32.00;27.25;;;;;20.40;59.43;101599.66;5001209;28;45895;-57
2021/09/03 08:45:51;;;;;;;;;28.00;25.75;;;;;20.50;59.10;101605.94;5001240;28;45474;-57
2021/09/03 08:48:23;;;;;;;;;27.00;25.00;;;;;20.56;58.78;101600.88;5001479;28;45383;-57
2021/09/03 08:50:50;;;;;;;;;28.50;26.00;;;;;20.64;58.57;101592.19;5001504;28;45238;-57
2021/09/03 08:53:17;;;;;;;;;28.00;27.50;;;;;20.69;58.68;101592.59;5001463;28;45607;-57
2021/09/03 08:55:45;;;;;;;;;25.50;22.50;;;;;20.75;58.80;101592.06;5001452;28;45371;-57
2021/09/03 08:58:11;;;;;;;;;22.75;22.25;;;;;20.82;58.30;101585.19;5001592;28;45155;-57
2021/09/03 09:00:36;;;;;;;;;24.25;20.00;;;;;20.92;57.95;101582.53;5018050;28;45451;-57
2021/09/03 09:03:10;;;;;;;;;21.75;21.25;;;;;21.02;57.87;101590.59;5021140;28;45212;-58
2021/09/03 09:05:53;;;;;;;;;25.75;20.00;;;;;21.12;57.40;101591.47;5020891;28;45242;-57
2021/09/03 09:08:20;;;;;;;;;23.00;19.50;;;;;21.23;57.43;101598.53;5021129;28;45324;-57
2021/09/03 09:10:55;;;;;;;;;24.50;20.50;;;;;21.28;56.90;101589.13;5014330;28;45226;-57
2021/09/03 09:13:34;;;;;;;;;29.75;28.50;;;;;21.38;56.78;101591.81;5001123;28;45455;-60
2021/09/03 09:16:10;;;;;;;;;25.00;19.00;;;;;21.46;56.64;101576.69;5001181;28;45480;-57
2021/09/03 09:18:43;;;;;;;;;20.00;18.50;;;;;21.54;56.67;101585.88;5000535;28;45368;-57
2021/09/03 09:21:13;;;;;;;;;25.00;22.25;;;;;21.61;56.18;101578.97;5001157;28;45216;-57
2021/09/03 09:23:40;;;;;;;;;23.75;23.25;;;;;21.68;55.95;101580.09;5000784;28;46124;-58
2021/09/03 09:26:07;;;;;;;;;19.75;18.75;;;;;21.74;55.79;101580.38;5001002;28;45175;-57
2021/09/03 09:28:34;;;;;;;;;22.25;20.75;;;;;21.80;55.76;101578.94;5007184;28;45237;-58
2021/09/03 09:31:01;;;;;;;;;25.00;21.75;;;;;21.88;55.66;101571.03;5007334;28;45344;-58
2021/09/03 09:33:27;;;;;;;;;29.00;25.50;;;;;21.98;55.65;101574.53;5000885;28;45265;-58
2021/09/03 09:35:55;;;;;;;;;30.75;23.50;;;;;22.07;55.27;101575.50;5000763;28;45317;-58
2021/09/03 09:38:23;;;;;;;;;23.75;21.00;;;;;22.16;55.32;101571.13;5001047;28;45177;-58
2021/09/03 09:40:53;;;;;;;;;22.25;19.75;;;;;22.23;55.32;101573.09;5001039;28;45187;-58
2021/09/03 09:43:33;;;;;;;;;23.00;23.00;;;;;22.34;55.15;101576.56;5000751;28;46416;-57
2021/09/03 09:46:07;;;;;;;;;24.50;20.50;;;;;22.41;54.45;101566.94;5000594;28;45313;-57
2021/09/03 09:48:34;;;;;;;;;20.75;19.00;;;;;22.48;54.52;101570.72;5000635;28;45369;-57
2021/09/03 09:50:59;;;;;;;;;20.75;19.25;;;;;22.54;54.43;101570.16;5000839;28;45230;-57
2021/09/03 09:53:26;;;;;;;;;25.00;19.50;;;;;22.61;54.24;101567.72;5000568;28;46085;-57
2021/09/03 09:55:51;;;;;;;;;21.00;18.25;;;;;22.65;53.50;101558.34;5002156;28;45336;-57
2021/09/03 09:58:19;;;;;;;;;23.25;21.50;;;;;22.74;53.67;101560.97;5003859;28;45369;-57
2021/09/03 10:00:45;;;;;;;;;17.75;17.50;;;;;22.79;53.79;101555.16;5021805;28;46471;-58
2021/09/03 10:03:11;;;;;;;;;25.50;20.75;;;;;22.89;53.38;101552.44;5023442;28;45232;-57
2021/09/03 10:05:37;;;;;;;;;20.50;18.00;;;;;22.93;52.74;101552.00;5023502;28;45379;-57
2021/09/03 10:08:05;;;;;;;;;19.50;19.00;;;;;23.02;53.29;101548.41;5023972;28;45289;-58
2021/09/03 10:10:30;;;;;;;;;22.25;21.00;;;;;23.11;53.01;101549.31;5023436;28;45283;-57
2021/09/03 10:12:56;;;;;;;;;28.75;20.75;;;;;23.16;53.02;101547.03;5023886;28;45380;-57
2021/09/03 10:15:22;;;;;;;;;21.00;21.00;;;;;23.21;52.71;101552.78;5023486;28;45316;-57
2021/09/03 10:17:48;;;;;;;;;22.25;18.50;;;;;23.27;52.15;101541.41;5023694;28;45463;-56
2021/09/03 10:20:16;;;;;;;;;19.00;16.00;;;;;23.35;52.37;101540.66;5022999;28;45319;-58
2021/09/03 10:22:49;;;;;;;;;19.50;17.00;;;;;23.44;51.62;101538.88;5023467;28;45369;-56
2021/09/03 10:25:15;;;;;;;;;17.75;17.25;;;;;23.51;51.97;101543.47;5023368;28;45375;-56
2021/09/03 10:27:40;;;;;;;;;19.00;19.00;;;;;23.58;51.52;101533.78;5021808;28;45253;-56
2021/09/03 10:30:13;;;;;;;;;20.75;15.75;;;;;23.61;51.39;101536.19;5017033;28;45628;-56
2021/09/03 10:32:40;;;;;;;;;19.00;18.00;;;;;23.67;51.03;101538.25;5003031;28;46081;-56
2021/09/03 10:35:17;;;;;;;;;19.25;16.75;;;;;23.78;51.63;101537.19;5010035;28;45267;-56
2021/09/03 10:37:42;;;;;;;;;26.25;23.25;;;;;23.87;50.93;101530.84;5022917;28;45470;-56
2021/09/03 10:40:19;;;;;;;;;18.50;17.00;;;;;23.93;50.10;101530.19;5022572;28;45444;-56
2021/09/03 10:42:48;;;;;;;;;24.75;17.75;;;;;23.99;50.52;101531.41;5022780;28;46160;-58
2021/09/03 10:45:29;;;;;;;;;18.50;16.00;;;;;24.08;49.95;101538.53;5023164;28;45461;-56
2021/09/03 10:47:57;;;;;;;;;23.25;18.75;;;;;24.11;50.35;101524.75;5022960;28;45478;-57
2021/09/03 10:50:38;;;;;;;;;22.25;17.75;;;;;24.17;49.80;101526.81;5023026;28;45296;-57
2021/09/03 10:53:06;;;;;;;;;20.00;16.50;;;;;24.23;49.67;101525.31;5023067;28;45953;-57
2021/09/03 10:55:50;;;;;;;;;22.50;19.75;;;;;24.31;48.89;101521.81;5022613;28;45494;-57
2021/09/03 10:58:37;;;;;;;;;18.25;15.25;;;;;24.35;49.63;101521.38;5013795;28;45340;-58
2021/09/03 11:01:12;;;;;;;;;16.25;15.25;;;;;24.41;48.88;101517.16;5001417;28;45342;-58
2021/09/03 11:03:44;;;;;;;;;20.25;17.50;;;;;24.47;49.31;101514.66;5002423;28;45324;-58
2021/09/03 11:06:35;;;;;;;;;20.75;18.50;;;;;24.54;49.15;101501.41;5002978;28;45380;-58